createdAt,value
2023-02-25T00:02:47.266Z,1.77
2023-02-25T00:05:51.249Z,2.20
2023-02-25T00:08:55.484Z,2.60
2023-02-25T00:11:58.160Z,2.47
2023-02-25T00:15:00.835Z,2.30
2023-02-25T00:18:03.430Z,2.93
2023-02-25T00:21:09.517Z,2.93
2023-02-25T00:24:16.956Z,3.30
2023-02-25T00:27:19.949Z,2.43
2023-02-25T00:30:23.062Z,2.87
2023-02-25T00:33:25.704Z,2.93
2023-02-25T00:36:29.730Z,2.43
2023-02-25T00:39:43.065Z,2.73
2023-02-25T00:42:46.102Z,2.73
2023-02-25T00:45:48.758Z,2.37
2023-02-25T00:48:51.758Z,2.50
2023-02-25T00:51:58.560Z,2.57
2023-02-25T00:55:02.500Z,2.73
2023-02-25T00:58:05.135Z,3.10
2023-02-25T01:01:19.446Z,2.40
2023-02-25T01:04:22.193Z,2.70
2023-02-25T01:07:26.349Z,2.33
2023-02-25T01:10:29.517Z,3.20
2023-02-25T01:13:32.200Z,2.33
2023-02-25T01:16:36.501Z,2.47
2023-02-25T01:19:39.247Z,2.87
2023-02-25T01:22:43.183Z,2.00
2023-02-25T01:25:45.793Z,2.60
2023-02-25T01:28:48.443Z,2.40
2023-02-25T01:31:53.509Z,2.47
2023-02-25T01:34:56.833Z,2.10
2023-02-25T01:38:00.786Z,2.00
2023-02-25T01:41:04.440Z,1.90
2023-02-25T01:44:10.284Z,1.80
2023-02-25T01:47:20.979Z,1.90
2023-02-25T01:50:26.742Z,1.80
2023-02-25T01:53:34.449Z,1.73
2023-02-25T01:56:39.655Z,1.50
2023-02-25T01:59:44.009Z,1.50
2023-02-25T02:02:50.349Z,1.80
2023-02-25T02:06:08.434Z,1.90
2023-02-25T02:09:16.189Z,1.47
2023-02-25T02:12:18.778Z,1.67
2023-02-25T02:15:21.447Z,1.90
2023-02-25T02:18:25.237Z,2.17
2023-02-25T02:21:48.506Z,1.70
2023-02-25T02:25:41.672Z,1.67
2023-02-25T02:29:12.416Z,1.73
2023-02-25T02:32:28.748Z,1.40
2023-02-25T02:35:37.346Z,1.60
2023-02-25T02:38:48.981Z,1.60
2023-02-25T02:42:01.344Z,1.70
2023-02-25T02:45:11.224Z,1.67
2023-02-25T02:48:18.401Z,1.50
2023-02-25T02:51:27.663Z,1.40
2023-02-25T02:54:33.180Z,1.67
2023-02-25T02:57:39.043Z,1.90
2023-02-25T03:00:44.720Z,1.47
2023-02-25T03:03:53.225Z,1.40
2023-02-25T03:07:00.561Z,1.90
2023-02-25T03:10:08.159Z,1.80
2023-02-25T03:13:10.818Z,1.80
2023-02-25T03:16:19.226Z,2.00
2023-02-25T03:19:27.841Z,1.60
2023-02-25T03:22:35.993Z,1.20
2023-02-25T03:25:47.477Z,1.63
2023-02-25T03:28:50.455Z,1.40
2023-02-25T03:31:58.959Z,1.33
2023-02-25T03:35:05.813Z,1.30
2023-02-25T03:38:12.172Z,1.43
2023-02-25T03:41:17.023Z,1.20
2023-02-25T03:44:24.872Z,1.37
2023-02-25T03:47:29.242Z,1.10
2023-02-25T03:50:38.420Z,1.10
2023-02-25T03:53:41.319Z,1.63
2023-02-25T03:56:46.751Z,1.00
2023-02-25T03:59:49.918Z,1.23
2023-02-25T04:02:52.880Z,1.00
2023-02-25T04:05:56.941Z,1.10
2023-02-25T04:08:59.572Z,1.10
2023-02-25T04:12:02.193Z,0.80
2023-02-25T04:15:05.959Z,0.77
2023-02-25T04:18:08.911Z,0.97
2023-02-25T04:21:27.574Z,0.67
2023-02-25T04:24:30.215Z,0.87
2023-02-25T04:27:33.074Z,0.63
2023-02-25T04:30:35.781Z,0.93
2023-02-25T04:33:38.409Z,0.80
2023-02-25T04:36:44.341Z,0.70
2023-02-25T04:39:47.033Z,0.83
2023-02-25T04:42:49.942Z,1.07
2023-02-25T04:45:55.411Z,0.63
2023-02-25T04:48:58.090Z,0.90
2023-02-25T04:52:02.108Z,0.83
2023-02-25T04:55:05.676Z,0.70
2023-02-25T04:58:08.351Z,1.00
2023-02-25T05:01:11.571Z,1.00
2023-02-25T05:04:14.252Z,1.40
2023-02-25T05:07:18.277Z,0.83
2023-02-25T05:10:20.973Z,0.57
2023-02-25T05:13:23.795Z,0.90
2023-02-25T05:16:27.472Z,0.47
2023-02-25T05:19:30.433Z,0.73
2023-02-25T05:22:34.509Z,0.77
2023-02-25T05:25:41.199Z,0.70
2023-02-25T05:28:44.508Z,0.47
2023-02-25T05:31:47.696Z,0.70
2023-02-25T05:34:50.589Z,0.50
2023-02-25T05:37:54.702Z,0.60
2023-02-25T05:41:00.016Z,0.77
2023-02-25T05:44:02.748Z,0.40
2023-02-25T05:47:06.093Z,0.60
2023-02-25T05:50:09.984Z,0.63
2023-02-25T05:53:14.008Z,0.70
2023-02-25T05:56:18.450Z,0.33
2023-02-25T05:59:21.220Z,0.63
2023-02-25T06:02:23.943Z,0.50
2023-02-25T06:05:26.640Z,0.40
2023-02-25T06:08:30.746Z,1.70
2023-02-25T06:11:33.898Z,0.90
2023-02-25T06:14:36.663Z,0.70
2023-02-25T06:17:39.897Z,0.80
2023-02-25T06:20:42.671Z,0.50
2023-02-25T06:23:46.917Z,0.53
2023-02-25T06:26:49.708Z,0.70
2023-02-25T06:29:52.398Z,0.90
2023-02-25T06:32:55.283Z,0.97
2023-02-25T06:35:58.826Z,0.70
2023-02-25T06:39:02.906Z,0.77
2023-02-25T06:42:05.760Z,0.80
2023-02-25T06:45:09.619Z,0.90
2023-02-25T06:48:12.325Z,0.70
2023-02-25T06:51:15.647Z,0.87
2023-02-25T06:54:20.285Z,0.50
2023-02-25T06:57:22.986Z,0.90
2023-02-25T07:00:25.835Z,0.60
2023-02-25T07:03:28.555Z,0.70
2023-02-25T07:06:31.346Z,0.90
2023-02-25T07:09:35.331Z,0.60
2023-02-25T07:12:38.037Z,0.60
2023-02-25T07:15:40.783Z,0.60
2023-02-25T07:18:43.814Z,0.60
2023-02-25T07:21:46.598Z,1.00
2023-02-25T07:24:51.190Z,0.60
2023-02-25T07:27:54.306Z,0.60
2023-02-25T07:30:57.049Z,0.60
2023-02-25T07:34:03.421Z,0.97
2023-02-25T07:37:06.108Z,0.70
2023-02-25T07:40:13.276Z,0.67
2023-02-25T07:43:15.985Z,0.70
2023-02-25T07:46:18.935Z,0.60
2023-02-25T07:49:21.724Z,1.60
2023-02-25T07:52:24.496Z,0.70
2023-02-25T07:55:28.711Z,0.70
2023-02-25T07:58:31.363Z,0.50
2023-02-25T08:01:35.207Z,0.80
2023-02-25T08:04:38.322Z,0.60
2023-02-25T08:07:41.507Z,0.70
2023-02-25T08:10:45.782Z,1.13
2023-02-25T08:13:48.592Z,1.20
2023-02-25T08:16:53.289Z,0.97
2023-02-25T08:19:55.949Z,0.53
2023-02-25T08:22:59.037Z,1.10
2023-02-25T08:26:03.883Z,0.67
2023-02-25T08:29:07.400Z,0.67
2023-02-25T08:32:10.267Z,0.60
2023-02-25T08:35:13.007Z,0.70
2023-02-25T08:38:15.728Z,0.80
2023-02-25T08:41:20.708Z,1.17
2023-02-25T08:44:23.626Z,0.97
2023-02-25T08:47:26.453Z,0.90
2023-02-25T08:50:29.778Z,0.70
2023-02-25T08:53:32.503Z,0.93
2023-02-25T08:56:37.766Z,0.43
2023-02-25T08:59:40.994Z,0.53
2023-02-25T09:02:44.981Z,1.63
2023-02-25T09:05:52.973Z,0.70
2023-02-25T09:08:57.362Z,0.70
2023-02-25T09:12:05.351Z,0.70
2023-02-25T09:15:09.805Z,0.63
2023-02-25T09:18:14.265Z,0.50
2023-02-25T09:21:17.239Z,0.50
2023-02-25T09:24:20.040Z,0.70
2023-02-25T09:27:24.130Z,0.50
2023-02-25T09:30:27.424Z,0.80
2023-02-25T09:33:32.217Z,0.67
2023-02-25T09:36:35.921Z,0.60
2023-02-25T09:39:38.995Z,0.50
2023-02-25T09:42:51.913Z,0.30
2023-02-25T09:45:58.724Z,0.30
2023-02-25T09:49:06.999Z,0.40
2023-02-25T09:52:18.514Z,0.50
2023-02-25T09:55:29.751Z,0.43
2023-02-25T09:58:38.177Z,0.40
2023-02-25T10:01:45.559Z,0.40
2023-02-25T10:04:55.464Z,0.50
2023-02-25T10:08:08.419Z,0.30
2023-02-25T10:11:16.072Z,0.30
2023-02-25T10:14:34.898Z,0.30
2023-02-25T10:17:46.507Z,0.40
2023-02-25T10:20:58.528Z,0.43
2023-02-25T10:24:16.735Z,0.20
2023-02-25T10:27:25.736Z,0.17
2023-02-25T10:30:34.021Z,0.30
2023-02-25T10:33:38.535Z,0.30
2023-02-25T10:36:44.922Z,0.30
2023-02-25T10:39:48.815Z,0.40
2023-02-25T10:42:54.328Z,0.57
2023-02-25T10:46:04.634Z,0.20
2023-02-25T10:49:17.577Z,0.57
2023-02-25T10:52:21.080Z,0.60
2023-02-25T10:55:41.432Z,0.37
2023-02-25T10:58:47.191Z,0.63
2023-02-25T11:01:51.520Z,0.30
2023-02-25T11:04:56.307Z,0.40
2023-02-25T11:07:59.153Z,0.80
2023-02-25T11:11:04.767Z,0.37
2023-02-25T11:14:14.326Z,0.43
2023-02-25T11:17:21.274Z,0.73
2023-02-25T11:20:27.148Z,0.57
2023-02-25T11:23:35.398Z,0.60
2023-02-25T11:26:39.355Z,0.50
2023-02-25T11:29:44.752Z,0.33
2023-02-25T11:32:53.796Z,0.57
2023-02-25T11:35:59.887Z,0.40
2023-02-25T11:39:17.029Z,0.40
2023-02-25T11:42:25.336Z,0.43
2023-02-25T11:45:30.844Z,0.40
2023-02-25T11:48:46.515Z,0.83
2023-02-25T11:51:53.268Z,0.60
2023-02-25T11:55:11.409Z,0.90
2023-02-25T11:58:26.934Z,0.53
2023-02-25T12:01:42.794Z,0.80
2023-02-25T12:05:20.308Z,0.77
2023-02-25T12:08:41.396Z,0.97
2023-02-25T12:12:19.578Z,1.90
2023-02-25T12:15:54.332Z,1.20
2023-02-25T12:19:26.753Z,1.67
2023-02-25T12:23:01.215Z,1.07
2023-02-25T12:26:12.429Z,1.20
2023-02-25T12:29:32.086Z,0.97
2023-02-25T12:32:56.744Z,0.93
2023-02-25T12:36:16.072Z,0.87
2023-02-25T12:39:41.819Z,0.90
2023-02-25T12:42:59.972Z,1.40
2023-02-25T12:46:16.937Z,0.80
2023-02-25T12:49:42.628Z,0.83
2023-02-25T12:53:00.794Z,1.00
2023-02-25T12:56:26.036Z,0.90
2023-02-25T12:59:46.002Z,0.87
2023-02-25T13:03:15.578Z,0.60
2023-02-25T13:06:31.334Z,0.90
2023-02-25T13:10:01.055Z,0.60
2023-02-25T13:13:26.237Z,0.77
2023-02-25T13:16:43.880Z,0.73
2023-02-25T13:20:33.525Z,0.90
2023-02-25T13:23:58.035Z,0.70
2023-02-25T13:27:15.651Z,0.70
2023-02-25T13:30:36.133Z,0.70
2023-02-25T13:34:00.283Z,0.90
2023-02-25T13:37:20.938Z,0.77
2023-02-25T13:40:37.705Z,0.63
2023-02-25T13:43:56.350Z,0.90
2023-02-25T13:47:10.894Z,0.63
2023-02-25T13:50:44.288Z,0.83
2023-02-25T13:54:02.863Z,0.80
2023-02-25T13:57:26.059Z,0.50
2023-02-25T14:00:49.110Z,0.73
2023-02-25T14:04:30.312Z,0.80
2023-02-25T14:07:56.897Z,0.87
2023-02-25T14:11:12.273Z,0.90
2023-02-25T14:14:39.189Z,0.97
2023-02-25T14:17:55.402Z,1.07
2023-02-25T14:21:10.258Z,0.70
2023-02-25T14:24:22.346Z,0.90
2023-02-25T14:27:32.449Z,0.77
2023-02-25T14:30:45.331Z,0.60
2023-02-25T14:34:01.398Z,0.87
2023-02-25T14:37:23.576Z,0.57
2023-02-25T14:40:32.273Z,0.70
2023-02-25T14:43:36.530Z,0.83
2023-02-25T14:46:43.899Z,0.90
2023-02-25T14:49:55.823Z,0.83
2023-02-25T14:53:18.797Z,1.20
2023-02-25T14:56:42.996Z,0.67
2023-02-25T15:00:01.007Z,1.07
2023-02-25T15:03:19.038Z,0.60
2023-02-25T15:06:32.054Z,1.27
2023-02-25T15:10:13.733Z,1.20
2023-02-25T15:13:40.736Z,0.93
2023-02-25T15:17:28.802Z,0.50
2023-02-25T15:20:38.891Z,0.80
2023-02-25T15:23:51.762Z,1.10
2023-02-25T15:26:56.146Z,0.73
2023-02-25T15:30:02.034Z,0.97
2023-02-25T15:33:27.841Z,0.70
2023-02-25T15:36:43.324Z,0.60
2023-02-25T15:39:51.648Z,1.00
2023-02-25T15:42:56.320Z,0.90
2023-02-25T15:46:40.821Z,0.60
2023-02-25T15:49:48.016Z,0.60
2023-02-25T15:52:59.195Z,0.93
2023-02-25T15:56:50.397Z,0.70
2023-02-25T15:59:55.481Z,1.10
2023-02-25T16:03:01.812Z,0.90
2023-02-25T16:06:14.361Z,0.87
2023-02-25T16:09:18.830Z,1.30
2023-02-25T16:12:22.307Z,1.13
2023-02-25T16:15:31.072Z,0.70
2023-02-25T16:18:37.571Z,0.97
2023-02-25T16:21:45.162Z,1.30
2023-02-25T16:24:50.474Z,0.90
2023-02-25T16:28:00.362Z,2.30
2023-02-25T16:31:13.227Z,1.50
2023-02-25T16:34:24.142Z,0.93
2023-02-25T16:37:39.570Z,1.13
2023-02-25T16:40:44.564Z,1.80
2023-02-25T16:43:48.259Z,1.17
2023-02-25T16:46:53.650Z,1.47
2023-02-25T16:49:59.262Z,1.27
2023-02-25T16:53:04.676Z,1.10
2023-02-25T16:56:13.353Z,2.30
2023-02-25T16:59:18.649Z,1.57
2023-02-25T17:02:24.953Z,1.10
2023-02-25T17:05:30.326Z,1.70
2023-02-25T17:08:35.342Z,1.57
2023-02-25T17:11:38.705Z,2.97
2023-02-25T17:14:45.126Z,2.00
2023-02-25T17:17:52.537Z,1.80
2023-02-25T17:21:02.977Z,1.83
2023-02-25T17:24:13.309Z,2.43
2023-02-25T17:27:17.156Z,3.33
2023-02-25T17:30:41.652Z,3.00
2023-02-25T17:33:48.245Z,1.17
2023-02-25T17:36:51.391Z,0.70
2023-02-25T17:39:56.481Z,0.60
2023-02-25T17:43:27.374Z,0.70
2023-02-25T17:46:36.389Z,0.53
2023-02-25T17:49:39.765Z,0.50
2023-02-25T17:52:42.646Z,0.77
2023-02-25T17:55:46.847Z,0.70
2023-02-25T17:58:50.380Z,0.50
2023-02-25T18:01:55.317Z,0.80
2023-02-25T18:05:18.404Z,0.70
2023-02-25T18:08:23.168Z,0.67
2023-02-25T18:11:29.821Z,0.60
2023-02-25T18:14:35.938Z,0.73
2023-02-25T18:17:39.646Z,0.57
2023-02-25T18:20:43.552Z,0.60
2023-02-25T18:23:48.152Z,0.80
2023-02-25T18:27:20.258Z,3.87
2023-02-25T18:30:26.110Z,1.90
2023-02-25T18:33:28.835Z,0.80
2023-02-25T18:36:31.485Z,1.07
2023-02-25T18:39:34.315Z,0.80
2023-02-25T18:42:38.298Z,1.00
2023-02-25T18:45:41.642Z,1.20
2023-02-25T18:48:44.317Z,1.07
2023-02-25T18:51:49.512Z,1.07
2023-02-25T18:54:52.393Z,0.90
2023-02-25T18:57:57.531Z,0.80
2023-02-25T19:01:00.325Z,1.07
2023-02-25T19:04:02.950Z,1.03
2023-02-25T19:07:10.399Z,1.20
2023-02-25T19:10:17.213Z,1.43
2023-02-25T19:13:26.067Z,2.07
2023-02-25T19:16:28.820Z,2.47
2023-02-25T19:19:31.441Z,1.50
2023-02-25T19:22:34.057Z,1.43
2023-02-25T19:25:37.092Z,1.53
2023-02-25T19:28:41.170Z,2.00
2023-02-25T19:31:43.890Z,1.70
2023-02-25T19:34:48.094Z,1.70
2023-02-25T19:37:50.712Z,1.63
2023-02-25T19:40:54.021Z,1.43
2023-02-25T19:43:57.988Z,1.60
2023-02-25T19:47:00.716Z,1.60
2023-02-25T19:50:06.995Z,1.37
2023-02-25T19:53:10.588Z,1.20
2023-02-25T19:56:13.182Z,1.27
2023-02-25T19:59:17.228Z,1.20
2023-02-25T20:02:20.108Z,1.23
2023-02-25T20:05:23.398Z,1.50
2023-02-25T20:08:26.163Z,1.20
2023-02-25T20:11:29.100Z,1.30
2023-02-25T20:14:33.224Z,1.37
2023-02-25T20:17:36.741Z,2.27
2023-02-25T20:20:42.084Z,1.13
2023-02-25T20:23:44.690Z,1.60
2023-02-25T20:26:47.480Z,1.40
2023-02-25T20:29:51.516Z,1.30
2023-02-25T20:32:54.477Z,2.40
2023-02-25T20:35:57.251Z,1.20
2023-02-25T20:39:34.472Z,1.53
2023-02-25T20:42:37.345Z,1.20
2023-02-25T20:45:42.362Z,1.70
2023-02-25T20:48:45.149Z,1.00
2023-02-25T20:51:49.384Z,1.20
2023-02-25T20:54:52.376Z,0.93
2023-02-25T20:57:54.972Z,1.33
2023-02-25T21:00:58.961Z,1.17
2023-02-25T21:04:01.689Z,1.20
2023-02-25T21:07:04.747Z,1.40
2023-02-25T21:10:08.759Z,1.03
2023-02-25T21:13:11.588Z,1.37
2023-02-25T21:16:16.767Z,1.00
2023-02-25T21:19:21.480Z,0.93
2023-02-25T21:22:24.067Z,1.10
2023-02-25T21:25:26.796Z,1.43
2023-02-25T21:28:29.779Z,1.10
2023-02-25T21:31:34.392Z,0.87
2023-02-25T21:34:37.789Z,1.10
2023-02-25T21:37:40.436Z,1.00
2023-02-25T21:40:43.084Z,1.00
2023-02-25T21:43:45.829Z,0.90
2023-02-25T21:46:49.880Z,0.90
2023-02-25T21:49:54.567Z,1.03
2023-02-25T21:52:57.333Z,1.10
2023-02-25T21:56:10.158Z,1.30
2023-02-25T21:59:12.822Z,1.00
2023-02-25T22:02:17.072Z,0.90
2023-02-25T22:05:20.235Z,1.13
2023-02-25T22:08:22.829Z,1.03
2023-02-25T22:11:28.147Z,1.30
2023-02-25T22:14:30.727Z,0.90
2023-02-25T22:17:36.425Z,0.90
2023-02-25T22:20:39.050Z,0.87
2023-02-25T22:23:43.437Z,1.00
2023-02-25T22:26:48.268Z,0.83
2023-02-25T22:29:51.299Z,0.90
2023-02-25T22:32:55.445Z,0.90
2023-02-25T22:35:59.662Z,0.90
2023-02-25T22:39:05.434Z,0.90
2023-02-25T22:42:08.071Z,1.10
2023-02-25T22:45:11.315Z,1.13
2023-02-25T22:48:15.355Z,0.90
2023-02-25T22:51:20.964Z,1.30
2023-02-25T22:54:23.620Z,0.90
2023-02-25T22:57:26.277Z,0.80
2023-02-25T23:00:36.918Z,0.90
2023-02-25T23:03:43.621Z,1.00
2023-02-25T23:06:46.734Z,1.10
2023-02-25T23:09:49.819Z,1.10
2023-02-25T23:12:52.422Z,0.83
2023-02-25T23:15:55.220Z,1.27
2023-02-25T23:19:00.318Z,0.90
2023-02-25T23:22:02.920Z,0.97
2023-02-25T23:25:06.471Z,1.23
2023-02-25T23:28:10.691Z,0.80
2023-02-25T23:31:20.121Z,1.20
2023-02-25T23:34:25.037Z,1.07
2023-02-25T23:37:27.699Z,0.80
2023-02-25T23:40:30.357Z,1.10
2023-02-25T23:43:33.089Z,0.90
2023-02-25T23:46:36.475Z,1.00
2023-02-25T23:49:40.453Z,1.13
2023-02-25T23:52:43.601Z,1.20
2023-02-25T23:55:46.194Z,1.23
2023-02-25T23:58:50.247Z,1.20
